Time;durP1;ratioP1;P1;durP2;ratioP2;P2;SDS_P1;SDS_P2;PMS_P1;PMS_P2;Temp;Humidity;BMP_temperature;BMP_pressure;BME280_temperature;BME280_humidity;BME280_pressure;Samples;Min_cycle;Max_cycle;Signal;HPM_P1;HPM_P2
2023/01/08 00:02:00;;;;;;;6.60;5.22;;;;;;;7.09;85.71;97972.28;5021733;28;20455;-81
2023/01/08 00:04:25;;;;;;;7.43;5.30;;;;;;;7.14;85.39;97981.09;5029362;28;20572;-81
2023/01/08 00:06:50;;;;;;;8.30;6.65;;;;;;;6.53;86.30;97966.25;5028034;28;20029;-81
2023/01/08 00:09:16;;;;;;;13.90;6.47;;;;;;;6.99;86.35;97975.59;5027255;28;20056;-81
2023/01/08 00:11:43;;;;;;;15.00;6.72;;;;;;;7.03;85.90;97971.44;5027999;28;20040;-81
2023/01/08 00:14:09;;;;;;;14.48;7.75;;;;;;;6.88;86.70;97960.59;5027632;28;20047;-81
2023/01/08 00:16:34;;;;;;;11.43;6.70;;;;;;;6.42;87.56;97932.69;5026951;28;20076;-80
2023/01/08 00:18:59;;;;;;;14.30;6.40;;;;;;;6.75;86.91;97956.47;5013050;28;20061;-81
2023/01/08 00:21:25;;;;;;;9.10;6.07;;;;;;;6.89;86.85;97941.00;5008746;28;20034;-80
2023/01/08 00:23:50;;;;;;;15.07;7.07;;;;;;;7.17;86.68;97946.09;5028784;28;20719;-81
2023/01/08 00:26:16;;;;;;;11.63;8.35;;;;;;;6.51;86.32;97936.53;5029252;28;20039;-80
2023/01/08 00:28:41;;;;;;;10.52;8.07;;;;;;;6.39;87.03;97921.78;5028509;28;20045;-80
2023/01/08 00:31:08;;;;;;;9.15;6.93;;;;;;;6.48;88.44;97923.78;5031629;28;20029;-80
2023/01/08 00:33:34;;;;;;;9.65;5.65;;;;;;;6.66;87.36;97914.72;5012946;28;20485;-80
2023/01/08 00:36:05;;;;;;;10.50;6.35;;;;;;;6.78;87.53;97918.06;4994021;28;20746;-80
2023/01/08 00:38:30;;;;;;;8.65;5.60;;;;;;;6.55;86.54;97899.75;5027986;28;20025;-80
2023/01/08 00:40:56;;;;;;;7.40;6.45;;;;;;;6.51;87.16;97907.38;5044397;28;20079;-80
2023/01/08 00:43:21;;;;;;;9.85;5.97;;;;;;;6.84;87.14;97916.28;5025916;28;20045;-80
2023/01/08 00:45:47;;;;;;;11.20;7.18;;;;;;;6.86;86.56;97922.91;5025907;28;20047;-80
2023/01/08 00:48:12;;;;;;;10.18;6.22;;;;;;;6.88;86.93;97928.78;4992934;28;20030;-80
2023/01/08 00:50:37;;;;;;;9.20;6.65;;;;;;;6.88;86.70;97935.94;5027295;28;20503;-80
2023/01/08 00:53:03;;;;;;;10.40;6.53;;;;;;;6.86;86.09;97927.44;5028647;28;20064;-80
2023/01/08 00:55:29;;;;;;;8.10;6.18;;;;;;;6.90;85.58;97924.06;5008370;28;20048;-80
2023/01/08 00:57:56;;;;;;;8.80;5.75;;;;;;;6.90;85.86;97909.97;5025857;28;20385;-80
2023/01/08 01:00:23;;;;;;;11.02;5.78;;;;;;;6.94;85.90;97906.59;5029257;28;20041;-80
2023/01/08 01:02:48;;;;;;;6.57;5.95;;;;;;;6.80;86.25;97887.59;5024017;28;20067;-80
2023/01/08 01:05:15;;;;;;;8.32;6.38;;;;;;;6.30;86.90;97886.94;5027772;28;20492;-80
2023/01/08 01:07:42;;;;;;;6.70;5.70;;;;;;;6.80;86.87;97890.25;5028151;28;20571;-80
2023/01/08 01:10:08;;;;;;;8.65;6.68;;;;;;;6.76;85.50;97890.97;5010040;28;20116;-80
2023/01/08 01:12:36;;;;;;;11.50;6.97;;;;;;;6.15;85.96;97893.88;5028180;28;20461;-80
2023/01/08 01:15:02;;;;;;;8.02;6.43;;;;;;;6.46;88.34;97877.34;5029403;28;20401;-80
2023/01/08 01:17:27;;;;;;;8.60;6.10;;;;;;;6.65;87.49;97876.81;5030361;28;20088;-80
2023/01/08 01:19:52;;;;;;;8.05;6.30;;;;;;;6.60;87.73;97886.53;5011514;28;20663;-80
2023/01/08 01:22:18;;;;;;;8.90;6.53;;;;;;;6.93;85.82;97889.06;5011900;28;20036;-80
2023/01/08 01:24:43;;;;;;;8.45;5.82;;;;;;;6.91;85.88;97893.00;5011476;28;20163;-80
2023/01/08 01:27:08;;;;;;;11.00;6.55;;;;;;;6.62;86.98;97892.38;5027495;28;20047;-80
2023/01/08 01:29:34;;;;;;;7.43;5.32;;;;;;;6.71;86.82;97882.97;5029443;28;20033;-80
2023/01/08 01:31:59;;;;;;;8.50;6.10;;;;;;;6.71;87.43;97890.91;5027845;28;20038;-80
2023/01/08 01:34:25;;;;;;;9.52;7.22;;;;;;;6.59;86.65;97895.56;5028516;28;20041;-80
2023/01/08 01:36:50;;;;;;;6.97;5.40;;;;;;;6.61;88.06;97877.53;5025233;28;20036;-80
2023/01/08 01:39:16;;;;;;;14.23;9.57;;;;;;;6.44;86.64;97871.50;5026016;28;20781;-80
2023/01/08 01:41:43;;;;;;;7.25;6.05;;;;;;;6.31;89.26;97871.84;5008377;28;20029;-80
2023/01/08 01:44:44;;;;;;;7.82;5.63;;;;;;;6.76;87.08;97878.53;5023033;28;20061;-79
2023/01/08 01:47:12;;;;;;;16.27;8.88;;;;;;;6.48;88.31;97869.97;5003759;28;20033;-80
2023/01/08 01:49:42;;;;;;;11.07;7.60;;;;;;;6.86;86.89;97885.78;5028468;28;20079;-80
2023/01/08 01:52:08;;;;;;;13.95;9.80;;;;;;;6.43;87.76;97875.19;5026111;28;20497;-80
2023/01/08 01:54:35;;;;;;;10.57;7.18;;;;;;;6.47;87.51;97884.25;5029171;28;20033;-80
2023/01/08 01:57:01;;;;;;;8.82;6.30;;;;;;;6.76;88.02;97885.69;5029463;28;20536;-80
2023/01/08 01:59:27;;;;;;;12.90;6.93;;;;;;;6.83;87.32;97875.69;5027664;28;20079;-81
2023/01/08 02:01:54;;;;;;;11.43;6.68;;;;;;;6.32;88.37;97858.34;5027983;28;20030;-80
2023/01/08 02:04:19;;;;;;;9.20;5.22;;;;;;;6.38;88.61;97867.16;5009514;28;20033;-80
2023/01/08 02:06:47;;;;;;;7.63;4.88;;;;;;;6.47;88.29;97876.28;5010981;28;20499;-80
2023/01/08 02:09:40;;;;;;;11.35;5.95;;;;;;;6.64;87.68;97888.44;5033631;28;20424;-79
2023/01/08 02:12:29;;;;;;;7.63;5.13;;;;;;;6.64;86.89;97877.84;5027964;28;20018;-80
2023/01/08 02:15:06;;;;;;;11.68;5.95;;;;;;;6.46;88.93;97895.91;5028662;28;20053;-80
2023/01/08 02:17:35;;;;;;;10.50;6.07;;;;;;;6.27;90.49;97892.72;5024748;28;20036;-80
2023/01/08 02:20:12;;;;;;;8.90;6.28;;;;;;;6.54;89.44;97885.69;5027866;28;20044;-80
2023/01/08 02:22:53;;;;;;;8.18;6.03;;;;;;;6.58;88.57;97884.13;5026633;28;20030;-80
2023/01/08 02:25:47;;;;;;;10.93;5.90;;;;;;;6.86;88.39;97883.13;5028087;28;20108;-80
2023/01/08 02:28:14;;;;;;;8.95;5.53;;;;;;;6.39;89.93;97879.38;5027313;28;20096;-79
2023/01/08 02:30:40;;;;;;;8.00;5.78;;;;;;;6.79;88.55;97888.63;5010603;28;20088;-80
2023/01/08 02:33:06;;;;;;;8.10;5.57;;;;;;;6.78;88.28;97883.59;5027658;28;20124;-80
2023/01/08 02:35:41;;;;;;;10.48;5.80;;;;;;;6.75;88.73;97868.97;5009790;28;20128;-80
2023/01/08 02:38:11;;;;;;;6.55;4.85;;;;;;;6.85;89.04;97878.91;5011814;28;20091;-80
2023/01/08 02:40:47;;;;;;;6.20;5.15;;;;;;;6.99;87.99;97876.66;5027157;28;20033;-80
2023/01/08 02:43:40;;;;;;;7.38;5.18;;;;;;;6.98;88.17;97864.44;5020199;28;20067;-79
2023/01/08 02:46:13;;;;;;;7.13;5.30;;;;;;;7.04;88.04;97850.16;5020112;28;20037;-80
2023/01/08 02:48:47;;;;;;;7.03;4.68;;;;;;;7.00;88.63;97860.50;5025305;28;20038;-80
2023/01/08 02:51:20;;;;;;;5.95;4.55;;;;;;;7.01;88.04;97845.38;5025366;28;20540;-80
2023/01/08 02:53:49;;;;;;;5.68;4.80;;;;;;;7.02;88.63;97863.69;5024678;28;20031;-80
2023/01/08 02:56:21;;;;;;;7.22;5.72;;;;;;;6.89;89.74;97857.97;5025647;28;20401;-80
2023/01/08 02:58:49;;;;;;;5.90;4.82;;;;;;;6.93;89.13;97851.91;5008788;28;20056;-79
2023/01/08 03:01:16;;;;;;;5.68;5.18;;;;;;;7.05;88.71;97852.59;5031060;28;20041;-79
2023/01/08 03:03:45;;;;;;;9.68;4.97;;;;;;;7.06;89.35;97854.19;5031706;28;20109;-80
2023/01/08 03:06:15;;;;;;;6.45;4.63;;;;;;;7.08;88.91;97845.97;5032216;28;20032;-80
2023/01/08 03:08:45;;;;;;;7.60;5.40;;;;;;;7.08;88.64;97841.47;5031995;28;20088;-80
2023/01/08 03:11:13;;;;;;;6.68;4.80;;;;;;;7.09;89.28;97829.81;5032198;28;20029;-80
2023/01/08 03:13:45;;;;;;;5.82;5.05;;;;;;;6.96;89.52;97811.66;5014358;28;20041;-80
2023/01/08 03:16:33;;;;;;;6.57;4.68;;;;;;;7.11;89.51;97821.59;5029448;28;20025;-79
2023/01/08 03:19:07;;;;;;;5.88;4.65;;;;;;;7.04;89.19;97828.94;5029847;28;20087;-80
2023/01/08 03:21:35;;;;;;;8.02;5.07;;;;;;;7.15;88.52;97836.75;5033158;28;20033;-80
2023/01/08 03:24:02;;;;;;;8.18;4.47;;;;;;;7.11;89.07;97834.84;5012868;28;20029;-80
2023/01/08 03:26:30;;;;;;;7.75;4.72;;;;;;;7.06;88.20;97827.66;5030861;28;20030;-79
2023/01/08 03:28:56;;;;;;;5.40;4.78;;;;;;;7.12;88.50;97815.25;5029005;28;20033;-80
2023/01/08 03:31:25;;;;;;;5.03;4.53;;;;;;;7.02;89.13;97823.09;5029832;28;20030;-80
2023/01/08 03:33:52;;;;;;;5.32;4.10;;;;;;;7.10;88.52;97822.66;5030687;28;20030;-80
2023/01/08 03:36:23;;;;;;;6.47;4.50;;;;;;;6.91;89.33;97822.19;5032022;28;20538;-80
2023/01/08 03:38:57;;;;;;;5.95;4.80;;;;;;;7.15;88.16;97820.84;5031472;28;20033;-80
2023/01/08 03:41:25;;;;;;;7.35;4.32;;;;;;;6.97;88.61;97817.75;5031155;28;20025;-80
2023/01/08 03:43:50;;;;;;;5.88;4.63;;;;;;;6.98;89.68;97806.88;5012232;28;20122;-80
2023/01/08 03:46:23;;;;;;;7.57;5.22;;;;;;;7.05;89.28;97804.03;5015667;28;20132;-80
2023/01/08 03:48:50;;;;;;;6.53;4.47;;;;;;;7.18;88.44;97798.31;5028667;28;20512;-80
2023/01/08 03:51:15;;;;;;;6.30;4.80;;;;;;;7.18;88.36;97801.78;5032386;28;20029;-81
2023/01/08 03:53:41;;;;;;;4.55;4.15;;;;;;;7.19;87.70;97806.00;5031058;28;20025;-80
2023/01/08 03:56:06;;;;;;;7.20;4.88;;;;;;;7.18;88.84;97804.44;5029686;28;20029;-79
2023/01/08 03:58:31;;;;;;;8.48;4.57;;;;;;;7.04;88.76;97792.63;5008212;28;20061;-80
2023/01/08 04:00:57;;;;;;;6.35;4.93;;;;;;;7.14;88.61;97787.38;5045638;28;20059;-80
2023/01/08 04:03:23;;;;;;;9.65;4.90;;;;;;;6.99;89.21;97770.56;5014921;28;20048;-79
2023/01/08 04:05:48;;;;;;;5.55;4.75;;;;;;;7.12;88.33;97791.38;5029836;28;20107;-80
2023/01/08 04:08:14;;;;;;;5.28;4.20;;;;;;;7.13;88.46;97795.59;5011840;28;20033;-80
2023/01/08 04:10:39;;;;;;;7.20;4.72;;;;;;;7.09;88.79;97784.72;5012026;28;20121;-79
2023/01/08 04:13:04;;;;;;;5.72;4.80;;;;;;;7.22;88.11;97794.09;5010366;28;20041;-80
2023/01/08 04:15:30;;;;;;;7.05;4.78;;;;;;;7.18;88.12;97791.16;5027365;28;20030;-81
2023/01/08 04:17:55;;;;;;;5.50;4.32;;;;;;;7.19;88.97;97800.72;5008810;28;20042;-80
2023/01/08 04:20:21;;;;;;;7.78;5.45;;;;;;;7.15;88.57;97793.50;5030989;28;20064;-81
2023/01/08 04:22:46;;;;;;;7.65;5.03;;;;;;;6.95;89.38;97770.25;5028443;28;20030;-80
2023/01/08 04:25:11;;;;;;;6.72;4.47;;;;;;;7.19;88.86;97783.97;5027343;28;20437;-80
2023/01/08 04:27:37;;;;;;;6.78;4.28;;;;;;;6.79;91.37;97774.59;5030178;28;20033;-80
2023/01/08 04:30:02;;;;;;;6.57;5.10;;;;;;;6.95;90.37;97778.19;5029831;28;20038;-80
2023/01/08 04:32:28;;;;;;;6.03;4.22;;;;;;;6.97;89.91;97762.06;5031164;28;20408;-80
2023/01/08 04:34:53;;;;;;;6.15;4.78;;;;;;;7.11;89.15;97773.84;5029106;28;20393;-80
2023/01/08 04:37:19;;;;;;;5.57;4.88;;;;;;;7.15;89.34;97770.44;5013158;28;20084;-80
2023/01/08 04:39:44;;;;;;;5.18;4.10;;;;;;;7.38;88.07;97770.06;5009981;28;20899;-80
2023/01/08 04:42:09;;;;;;;5.45;4.70;;;;;;;7.31;88.35;97769.50;5011783;28;20021;-80
2023/01/08 04:44:35;;;;;;;5.43;4.43;;;;;;;7.38;87.46;97778.03;5028704;28;20033;-80
2023/01/08 04:47:00;;;;;;;7.30;4.57;;;;;;;7.33;88.56;97770.06;5028829;28;20013;-80
2023/01/08 04:49:25;;;;;;;5.95;4.85;;;;;;;7.26;88.55;97766.81;5027100;28;20121;-80
2023/01/08 04:51:51;;;;;;;7.22;4.60;;;;;;;7.29;88.94;97758.34;5027567;28;20482;-81
2023/01/08 04:54:16;;;;;;;7.80;3.85;;;;;;;7.27;88.76;97763.09;5010457;28;20033;-80
2023/01/08 04:56:41;;;;;;;5.38;4.35;;;;;;;7.32;88.91;97755.16;5009975;28;20117;-80
2023/01/08 04:59:07;;;;;;;6.82;5.07;;;;;;;7.24;88.64;97752.19;5027962;28;20037;-80
2023/01/08 05:01:32;;;;;;;5.82;4.47;;;;;;;7.33;88.44;97754.13;5027497;28;20116;-80
2023/01/08 05:04:00;;;;;;;6.15;4.72;;;;;;;7.30;88.89;97754.63;5011013;28;20053;-81
2023/01/08 05:06:28;;;;;;;5.85;4.43;;;;;;;7.36;88.34;97750.94;5026755;28;20025;-80
2023/01/08 05:08:53;;;;;;;6.47;4.60;;;;;;;7.39;88.34;97747.78;5028299;28;20053;-80
2023/01/08 05:11:19;;;;;;;4.80;4.13;;;;;;;7.39;88.83;97753.09;5028036;28;20457;-80
2023/01/08 05:13:47;;;;;;;7.20;4.78;;;;;;;7.30;88.88;97733.41;5028696;28;20038;-80
2023/01/08 05:16:13;;;;;;;6.43;4.68;;;;;;;7.37;88.25;97751.75;5026682;28;20573;-80
2023/01/08 05:18:38;;;;;;;7.75;5.55;;;;;;;7.35;88.72;97746.72;5026231;28;20025;-80
2023/01/08 05:21:04;;;;;;;10.25;4.80;;;;;;;7.41;88.61;97750.19;4994210;28;20048;-80
2023/01/08 05:23:31;;;;;;;6.15;4.63;;;;;;;7.34;88.95;97739.78;5028884;28;20039;-80
2023/01/08 05:26:01;;;;;;;5.97;4.68;;;;;;;7.36;89.54;97740.34;5021403;28;20091;-80
2023/01/08 05:28:27;;;;;;;9.48;6.10;;;;;;;7.11;90.41;97737.50;5023327;28;20037;-80
2023/01/08 05:30:53;;;;;;;5.70;5.03;;;;;;;7.19;90.05;97739.69;5028035;28;20035;-80
2023/01/08 05:33:19;;;;;;;6.20;5.00;;;;;;;7.09;90.41;97729.00;5028630;28;20152;-80
2023/01/08 05:35:44;;;;;;;6.35;4.88;;;;;;;7.30;90.11;97741.34;5026299;28;20030;-80
2023/01/08 05:38:10;;;;;;;5.90;4.80;;;;;;;7.24;90.05;97734.41;5025448;28;20040;-80
2023/01/08 05:40:35;;;;;;;6.82;6.13;;;;;;;7.00;92.33;97729.69;5008679;28;20445;-81
2023/01/08 05:43:01;;;;;;;6.70;5.15;;;;;;;7.24;90.44;97734.41;4993225;28;20401;-81
2023/01/08 05:45:27;;;;;;;7.05;5.05;;;;;;;7.12;91.26;97731.13;5027589;28;20033;-80
2023/01/08 05:47:52;;;;;;;7.38;5.25;;;;;;;7.06;92.08;97720.72;5026798;28;20429;-80
2023/01/08 05:50:18;;;;;;;8.15;4.90;;;;;;;7.10;91.61;97724.50;5027389;28;20037;-80
2023/01/08 05:52:43;;;;;;;5.72;5.10;;;;;;;7.16;91.29;97726.13;5026829;28;20108;-80
2023/01/08 05:55:08;;;;;;;7.78;5.25;;;;;;;7.15;91.43;97724.50;5007468;28;20033;-80
2023/01/08 05:57:34;;;;;;;5.68;4.95;;;;;;;7.12;91.40;97728.47;4993271;28;20021;-80
2023/01/08 05:59:59;;;;;;;10.88;5.25;;;;;;;7.03;92.24;97719.41;5027528;28;20041;-80
2023/01/08 06:02:25;;;;;;;7.45;5.10;;;;;;;7.17;92.16;97722.41;5026661;28;20036;-80
2023/01/08 06:04:50;;;;;;;6.43;5.05;;;;;;;7.32;91.10;97725.97;5029335;28;20025;-81
2023/01/08 06:07:15;;;;;;;7.18;5.47;;;;;;;7.17;92.18;97715.25;5007647;28;20048;-81
2023/01/08 06:09:41;;;;;;;8.52;5.53;;;;;;;7.23;92.10;97726.72;4994726;28;20037;-81
2023/01/08 06:12:06;;;;;;;5.55;4.95;;;;;;;7.26;91.79;97723.53;5008735;28;20188;-82
2023/01/08 06:14:32;;;;;;;7.85;5.32;;;;;;;7.30;91.45;97721.97;5026585;28;20036;-81
2023/01/08 06:16:57;;;;;;;6.57;5.28;;;;;;;7.17;91.80;97711.78;5007164;28;20045;-81
2023/01/08 06:19:22;;;;;;;7.97;5.53;;;;;;;7.24;91.50;97717.69;5026695;28;20030;-81
2023/01/08 06:21:48;;;;;;;9.90;5.40;;;;;;;7.28;91.99;97713.47;5028336;28;20037;-81
2023/01/08 06:24:13;;;;;;;6.72;5.90;;;;;;;7.26;91.57;97708.41;5006589;28;20068;-81
2023/01/08 06:26:39;;;;;;;5.40;4.88;;;;;;;7.22;92.20;97709.19;5026980;28;20080;-81
2023/01/08 06:29:04;;;;;;;6.43;5.65;;;;;;;7.07;93.02;97706.41;5008594;28;20029;-81
2023/01/08 06:31:29;;;;;;;8.15;5.70;;;;;;;7.22;92.63;97709.19;5025666;28;20026;-80
2023/01/08 06:33:55;;;;;;;6.68;5.10;;;;;;;7.28;92.18;97719.59;5027768;28;20370;-81
2023/01/08 06:36:20;;;;;;;9.15;6.00;;;;;;;7.16;92.70;97716.31;4995710;28;20200;-80
2023/01/08 06:38:45;;;;;;;6.85;5.78;;;;;;;7.18;91.84;97706.25;5031261;28;20126;-81
2023/01/08 06:41:11;;;;;;;10.10;6.78;;;;;;;7.26;92.28;97721.69;5013941;28;20042;-81
2023/01/08 06:43:37;;;;;;;9.85;5.85;;;;;;;7.04;93.29;97710.38;5029373;28;20033;-82
2023/01/08 06:46:04;;;;;;;9.65;6.53;;;;;;;7.22;92.51;97731.22;5028614;28;20088;-82
2023/01/08 06:48:29;;;;;;;9.40;6.53;;;;;;;7.25;91.63;97720.06;5027747;28;20036;-81
2023/01/08 06:50:56;;;;;;;12.07;6.05;;;;;;;7.29;92.25;97734.47;5015838;28;20420;-82
2023/01/08 06:53:22;;;;;;;7.05;5.95;;;;;;;7.36;91.87;97734.25;5028610;28;20061;-81
2023/01/08 06:55:47;;;;;;;7.70;5.32;;;;;;;7.41;91.52;97731.59;5028703;28;20033;-81
2023/01/08 06:58:12;;;;;;;8.48;6.40;;;;;;;7.38;91.23;97730.25;5030081;28;20637;-81
2023/01/08 07:00:38;;;;;;;8.20;6.25;;;;;;;7.16;93.17;97724.28;5028565;28;20511;-82
2023/01/08 07:03:04;;;;;;;9.27;5.70;;;;;;;7.38;91.80;97732.13;5029198;28;20052;-81
2023/01/08 07:05:29;;;;;;;7.80;5.82;;;;;;;7.38;92.29;97734.78;5013729;28;20120;-82
2023/01/08 07:07:55;;;;;;;7.68;6.07;;;;;;;7.37;92.09;97728.69;5011323;28;20036;-82
2023/01/08 07:10:21;;;;;;;9.88;6.63;;;;;;;7.31;92.78;97739.50;5026199;28;20039;-81
2023/01/08 07:12:47;;;;;;;6.75;5.15;;;;;;;7.38;91.62;97740.88;5029355;28;20021;-81
2023/01/08 07:15:12;;;;;;;10.13;6.30;;;;;;;7.29;91.98;97729.16;5030973;28;20047;-81
2023/01/08 07:17:37;;;;;;;7.80;6.40;;;;;;;7.30;92.41;97737.91;5011429;28;20401;-81
2023/01/08 07:20:03;;;;;;;6.88;6.18;;;;;;;7.13;93.28;97739.88;5027974;28;20045;-80
2023/01/08 07:22:29;;;;;;;9.35;6.45;;;;;;;7.14;93.25;97731.66;5012412;28;20031;-81
2023/01/08 07:24:54;;;;;;;7.75;6.47;;;;;;;7.18;92.66;97742.59;5028705;28;20489;-80
2023/01/08 07:27:19;;;;;;;13.27;6.53;;;;;;;7.11;93.50;97734.84;5009847;28;20037;-81
2023/01/08 07:29:45;;;;;;;4.63;3.97;;;;;;;7.11;93.47;97734.84;5028481;28;20050;-80
2023/01/08 07:32:10;;;;;;;7.22;4.97;;;;;;;7.17;93.26;97731.19;5027393;28;20039;-80
2023/01/08 07:34:36;;;;;;;5.22;4.60;;;;;;;7.24;92.96;97749.53;5010998;28;20478;-80
2023/01/08 07:37:02;;;;;;;5.97;4.72;;;;;;;6.95;94.72;97735.75;5026667;28;20103;-80
2023/01/08 07:39:27;;;;;;;7.38;4.32;;;;;;;7.24;93.58;97742.38;5024076;28;20403;-80
2023/01/08 07:41:53;;;;;;;6.93;4.47;;;;;;;7.20;92.35;97738.63;5006612;28;20021;-80
2023/01/08 07:44:18;;;;;;;5.13;3.03;;;;;;;7.11;93.28;97742.81;5027410;28;20139;-80
2023/01/08 07:46:44;;;;;;;3.28;2.70;;;;;;;7.09;93.19;97736.97;5009861;28;20097;-80
2023/01/08 07:49:10;;;;;;;3.38;2.88;;;;;;;7.05;94.83;97746.47;5027660;28;20060;-80
2023/01/08 07:51:35;;;;;;;2.65;2.42;;;;;;;7.15;92.75;97733.28;5025976;28;20041;-80
2023/01/08 07:54:01;;;;;;;3.25;2.53;;;;;;;7.12;92.68;97727.69;4995784;28;20045;-80
2023/01/08 07:56:26;;;;;;;2.95;2.47;;;;;;;7.12;93.15;97733.00;5008570;28;20040;-81
2023/01/08 07:58:51;;;;;;;2.15;2.00;;;;;;;7.08;93.72;97719.41;5011992;28;20033;-81
2023/01/08 08:01:17;;;;;;;1.83;1.65;;;;;;;6.96;93.89;97721.47;5008722;28;20060;-81
2023/01/08 08:03:42;;;;;;;2.53;2.33;;;;;;;7.07;93.39;97717.84;5027915;28;20566;-81
2023/01/08 08:06:08;;;;;;;1.50;1.40;;;;;;;7.10;93.14;97721.84;5008700;28;20045;-80
2023/01/08 08:08:34;;;;;;;2.53;2.03;;;;;;;7.14;93.33;97721.06;5028138;28;20144;-81
2023/01/08 08:11:00;;;;;;;1.90;1.73;;;;;;;7.19;92.56;97720.28;5025747;28;20029;-80
2023/01/08 08:13:25;;;;;;;3.28;2.13;;;;;;;7.16;93.04;97716.31;5029277;28;20029;-80
2023/01/08 08:15:51;;;;;;;1.98;1.77;;;;;;;7.13;93.31;97721.31;5010667;28;20040;-80
2023/01/08 08:18:16;;;;;;;1.40;1.30;;;;;;;6.98;93.58;97722.00;5045476;28;20459;-80
2023/01/08 08:20:41;;;;;;;1.67;1.52;;;;;;;7.05;93.08;97714.63;5027506;28;20409;-80
2023/01/08 08:23:11;;;;;;;1.70;1.42;;;;;;;7.06;94.14;97731.34;5030103;28;20057;-80
2023/01/08 08:25:37;;;;;;;2.38;1.48;;;;;;;7.02;93.88;97733.72;5026713;28;20044;-80
2023/01/08 08:28:03;;;;;;;1.77;1.67;;;;;;;7.15;92.86;97732.47;5029095;28;20033;-80
2023/01/08 08:30:30;;;;;;;1.92;1.67;;;;;;;7.02;93.77;97717.78;5009622;28;20040;-80
2023/01/08 08:32:58;;;;;;;2.90;1.75;;;;;;;7.03;94.02;97722.06;5009496;28;20025;-80
2023/01/08 08:35:23;;;;;;;2.45;2.17;;;;;;;7.17;93.92;97733.81;5026494;28;20029;-80
2023/01/08 08:37:49;;;;;;;1.40;1.30;;;;;;;7.12;93.92;97731.13;5011012;28;20536;-82
2023/01/08 08:40:15;;;;;;;1.50;1.40;;;;;;;7.09;94.28;97731.66;5010920;28;20041;-81
2023/01/08 08:42:40;;;;;;;2.65;1.70;;;;;;;7.18;93.19;97729.31;5024120;28;20436;-81
2023/01/08 08:45:06;;;;;;;2.08;1.88;;;;;;;7.24;93.66;97729.09;5026750;28;20516;-81
2023/01/08 08:47:32;;;;;;;3.60;2.08;;;;;;;7.18;93.65;97716.06;5010479;28;20052;-82
2023/01/08 08:49:57;;;;;;;1.48;1.38;;;;;;;7.23;92.90;97724.84;5025982;28;20041;-81
2023/01/08 08:52:22;;;;;;;1.90;1.42;;;;;;;7.23;94.03;97727.50;5027739;28;20052;-80
2023/01/08 08:54:48;;;;;;;3.13;1.83;;;;;;;7.32;92.71;97723.31;5027438;28;20029;-80
2023/01/08 08:57:13;;;;;;;1.50;1.40;;;;;;;7.27;93.07;97717.19;5027761;28;20822;-80
2023/01/08 08:59:38;;;;;;;3.38;1.33;;;;;;;7.36;92.77;97715.66;5027111;28;20025;-80
2023/01/08 09:02:04;;;;;;;1.98;1.67;;;;;;;7.28;93.15;97708.16;5022590;28;20037;-80
2023/01/08 09:04:31;;;;;;;1.95;1.35;;;;;;;7.37;93.16;97710.09;5026696;28;20083;-80
2023/01/08 09:06:56;;;;;;;3.03;1.77;;;;;;;7.29;94.45;97709.78;5023981;28;20120;-80
2023/01/08 09:09:22;;;;;;;2.13;1.92;;;;;;;7.15;95.30;97703.28;4992222;28;20125;-80
2023/01/08 09:11:47;;;;;;;2.38;1.70;;;;;;;7.37;93.50;97701.31;5026021;28;20033;-80
2023/01/08 09:14:13;;;;;;;1.70;1.55;;;;;;;7.34;94.06;97704.47;5024533;28;20060;-81
2023/01/08 09:16:38;;;;;;;2.38;1.80;;;;;;;7.19;94.94;97699.88;5028388;28;20031;-81
2023/01/08 09:19:05;;;;;;;1.60;1.50;;;;;;;7.47;93.25;97722.63;5029025;28;20053;-81
2023/01/08 09:21:30;;;;;;;1.67;1.58;;;;;;;7.38;93.80;97738.22;5007735;28;20041;-81
2023/01/08 09:23:56;;;;;;;1.75;1.65;;;;;;;7.33;94.81;97735.56;5011581;28;20079;-80
2023/01/08 09:26:21;;;;;;;1.40;1.30;;;;;;;7.41;93.33;97726.31;5041429;28;20045;-81
2023/01/08 09:28:46;;;;;;;2.03;1.70;;;;;;;7.33;94.62;97726.78;5028389;28;20045;-80
2023/01/08 09:31:12;;;;;;;1.95;1.85;;;;;;;7.47;93.49;97728.72;5027199;28;20052;-80
2023/01/08 09:33:37;;;;;;;2.47;1.77;;;;;;;7.50;93.21;97716.81;5026513;28;20420;-79
2023/01/08 09:36:03;;;;;;;2.17;2.00;;;;;;;7.15;96.14;97712.06;5021586;28;20033;-80
2023/01/08 09:38:28;;;;;;;2.92;2.72;;;;;;;7.07;97.09;97701.91;5026316;28;20033;-80
2023/01/08 09:40:58;;;;;;;2.85;2.63;;;;;;;7.34;94.73;97723.88;5008085;28;20484;-80
2023/01/08 09:43:27;;;;;;;1.67;1.58;;;;;;;7.56;93.67;97716.56;5028315;28;20025;-80
2023/01/08 09:45:56;;;;;;;3.45;2.92;;;;;;;7.36;95.65;97721.75;5011992;28;20490;-79
2023/01/08 09:48:27;;;;;;;4.68;2.70;;;;;;;7.17;96.50;97720.56;5011094;28;20040;-80
2023/01/08 09:50:52;;;;;;;3.20;2.90;;;;;;;7.37;96.21;97719.91;5027409;28;20037;-80
2023/01/08 09:53:18;;;;;;;4.07;2.90;;;;;;;7.46;94.90;97715.72;5027560;28;20504;-80
2023/01/08 09:55:48;;;;;;;3.15;2.10;;;;;;;7.52;94.33;97701.41;5025122;28;20037;-80
2023/01/08 09:58:29;;;;;;;3.72;3.10;;;;;;;7.44;95.31;97723.94;5023639;28;20025;-80
2023/01/08 10:00:55;;;;;;;2.33;2.13;;;;;;;7.46;93.85;97705.91;5044642;28;20025;-81
2023/01/08 10:03:27;;;;;;;2.58;2.38;;;;;;;7.52;93.99;97704.06;5027461;28;20104;-80
2023/01/08 10:05:53;;;;;;;2.22;2.03;;;;;;;7.56;93.78;97711.28;5025090;28;20381;-80
2023/01/08 10:08:18;;;;;;;1.85;1.75;;;;;;;7.69;93.59;97717.19;5011757;28;20033;-80
2023/01/08 10:10:44;;;;;;;2.65;2.20;;;;;;;7.67;93.31;97721.94;5014797;28;20029;-81
2023/01/08 10:13:11;;;;;;;2.65;2.33;;;;;;;7.64;92.87;97706.53;5011974;28;20777;-81
2023/01/08 10:15:39;;;;;;;2.88;1.98;;;;;;;7.49;94.54;97705.38;5029616;28;20646;-80
2023/01/08 10:18:11;;;;;;;1.80;1.70;;;;;;;7.53;93.76;97695.84;5025942;28;20038;-81
2023/01/08 10:20:38;;;;;;;2.10;1.90;;;;;;;7.75;92.65;97709.00;5014506;28;20045;-80
2023/01/08 10:23:12;;;;;;;3.38;1.67;;;;;;;7.58;93.78;97693.22;5050570;28;20040;-80
2023/01/08 10:25:54;;;;;;;2.90;2.10;;;;;;;7.54;94.16;97694.81;5029818;28;20405;-80
2023/01/08 10:28:29;;;;;;;2.47;1.98;;;;;;;7.44;94.46;97681.47;5029204;28;20108;-81
2023/01/08 10:31:06;;;;;;;1.90;1.80;;;;;;;7.55;92.81;97675.16;5027161;28;20033;-80
2023/01/08 10:33:48;;;;;;;2.50;2.30;;;;;;;7.64;93.23;97679.97;5025744;28;20030;-80
2023/01/08 10:36:22;;;;;;;2.85;2.45;;;;;;;7.43;94.55;97674.56;5015850;28;20102;-80
2023/01/08 10:38:58;;;;;;;4.00;2.15;;;;;;;7.71;93.06;97680.56;5022632;28;20493;-81
2023/01/08 10:41:25;;;;;;;2.50;2.30;;;;;;;7.70;93.18;97671.78;5030711;28;20051;-81
2023/01/08 10:44:00;;;;;;;2.90;2.60;;;;;;;7.69;92.82;97669.41;5022609;28;20037;-80
2023/01/08 10:46:40;;;;;;;7.47;5.93;;;;;;;7.56;93.65;97662.66;5032727;28;20101;-80
2023/01/08 10:49:23;;;;;;;9.88;5.90;;;;;;;7.54;93.51;97652.31;5029876;28;20044;-81
2023/01/08 10:51:51;;;;;;;5.05;4.55;;;;;;;7.58;93.51;97666.66;5032678;28;20537;-81
2023/01/08 10:54:29;;;;;;;6.75;6.05;;;;;;;7.64;93.49;97654.22;5028669;28;20065;-81
2023/01/08 10:56:55;;;;;;;3.67;2.90;;;;;;;7.77;92.73;97648.44;5032565;28;20540;-80
2023/01/08 10:59:22;;;;;;;6.25;3.55;;;;;;;7.58;93.76;97637.47;5034400;28;20032;-80
2023/01/08 11:01:49;;;;;;;4.10;3.70;;;;;;;7.56;94.30;97638.78;5015334;28;20128;-82
2023/01/08 11:04:25;;;;;;;12.35;7.80;;;;;;;7.63;93.57;97623.41;5033642;28;20092;-81
2023/01/08 11:06:50;;;;;;;;;;;;;;;7.68;93.89;97642.03;5030058;28;20469;-81
2023/01/08 11:09:26;;;;;;;8.67;6.93;;;;;;;7.48;94.02;97618.03;5030916;28;19924;-81
2023/01/08 11:11:51;;;;;;;7.32;6.50;;;;;;;7.66;93.63;97646.81;5033937;28;20036;-81
2023/01/08 11:14:25;;;;;;;4.55;3.75;;;;;;;7.76;92.95;97624.78;5032428;28;20033;-81
2023/01/08 11:16:52;;;;;;;19.55;13.25;;;;;;;7.74;92.31;97630.38;5032611;28;20493;-81
2023/01/08 11:19:29;;;;;;;28.02;18.85;;;;;;;7.75;93.57;97633.84;5030753;28;20481;-81
2023/01/08 11:22:03;;;;;;;8.73;7.05;;;;;;;7.62;93.85;97621.03;5027799;28;20044;-80
2023/01/08 11:24:33;;;;;;;44.80;24.42;;;;;;;7.73;93.93;97633.28;5025853;28;20040;-80
2023/01/08 11:27:01;;;;;;;18.10;9.82;;;;;;;7.77;93.43;97623.75;5027086;28;20025;-81
2023/01/08 11:29:53;;;;;;;14.68;8.52;;;;;;;7.86;92.02;97623.00;5030622;28;20037;-80
2023/01/08 11:32:43;;;;;;;3.40;2.85;;;;;;;7.87;92.53;97610.47;5021379;28;20781;-81
2023/01/08 11:35:18;;;;;;;3.38;3.08;;;;;;;7.94;92.87;97619.00;5028010;28;20021;-81
2023/01/08 11:37:57;;;;;;;133.02;56.60;;;;;;;7.64;93.93;97609.09;5027682;28;20034;-81
2023/01/08 11:40:49;;;;;;;4.65;3.55;;;;;;;7.80;92.12;97612.59;5032809;28;20099;-82
2023/01/08 11:43:24;;;;;;;52.97;24.42;;;;;;;7.77;92.94;97602.50;5018138;28;20037;-82
2023/01/08 11:45:57;;;;;;;10.98;6.55;;;;;;;7.74;92.69;97598.50;5031002;28;20934;-80